sensor_id;sensor_type;location;lat;lon;timestamp;P1;durP1;ratioP1;P2;durP2;ratioP2
11653;SDS011;5883;48.818;9.114;2024-01-30T00:02:13;9.35;;;5.18;;
11653;SDS011;5883;48.818;9.114;2024-01-30T00:04:58;9.48;;;4.55;;
11653;SDS011;5883;48.818;9.114;2024-01-30T00:07:42;7.68;;;4.88;;
11653;SDS011;5883;48.818;9.114;2024-01-30T00:10:27;7.20;;;4.65;;
11653;SDS011;5883;48.818;9.114;2024-01-30T00:13:14;7.50;;;4.63;;
11653;SDS011;5883;48.818;9.114;2024-01-30T00:16:01;7.50;;;5.20;;
11653;SDS011;5883;48.818;9.114;2024-01-30T00:18:47;6.45;;;5.00;;
11653;SDS011;5883;48.818;9.114;2024-01-30T00:21:32;8.20;;;4.60;;
11653;SDS011;5883;48.818;9.114;2024-01-30T00:24:17;7.88;;;4.63;;
11653;SDS011;5883;48.818;9.114;2024-01-30T00:27:02;6.45;;;4.80;;
11653;SDS011;5883;48.818;9.114;2024-01-30T00:29:48;6.88;;;4.75;;
11653;SDS011;5883;48.818;9.114;2024-01-30T00:32:33;6.50;;;4.75;;
11653;SDS011;5883;48.818;9.114;2024-01-30T00:35:18;6.15;;;4.70;;
11653;SDS011;5883;48.818;9.114;2024-01-30T00:38:03;6.50;;;4.80;;
11653;SDS011;5883;48.818;9.114;2024-01-30T00:40:50;8.57;;;5.07;;
11653;SDS011;5883;48.818;9.114;2024-01-30T00:43:35;7.20;;;5.20;;
11653;SDS011;5883;48.818;9.114;2024-01-30T00:46:21;6.95;;;5.68;;
11653;SDS011;5883;48.818;9.114;2024-01-30T00:49:06;8.00;;;5.20;;
11653;SDS011;5883;48.818;9.114;2024-01-30T00:51:51;6.18;;;4.68;;
11653;SDS011;5883;48.818;9.114;2024-01-30T00:54:36;8.02;;;5.03;;
11653;SDS011;5883;48.818;9.114;2024-01-30T00:57:21;10.20;;;5.15;;
11653;SDS011;5883;48.818;9.114;2024-01-30T01:00:06;11.07;;;5.75;;
11653;SDS011;5883;48.818;9.114;2024-01-30T01:02:54;5.93;;;4.65;;
11653;SDS011;5883;48.818;9.114;2024-01-30T01:05:39;8.73;;;4.97;;
11653;SDS011;5883;48.818;9.114;2024-01-30T01:08:24;7.65;;;5.30;;
11653;SDS011;5883;48.818;9.114;2024-01-30T01:11:08;7.38;;;5.03;;
11653;SDS011;5883;48.818;9.114;2024-01-30T01:13:54;8.98;;;4.53;;
11653;SDS011;5883;48.818;9.114;2024-01-30T01:16:39;6.00;;;4.60;;
11653;SDS011;5883;48.818;9.114;2024-01-30T01:19:25;6.82;;;4.32;;
11653;SDS011;5883;48.818;9.114;2024-01-30T01:22:10;4.80;;;3.95;;
11653;SDS011;5883;48.818;9.114;2024-01-30T01:24:55;5.60;;;4.18;;
11653;SDS011;5883;48.818;9.114;2024-01-30T01:27:40;6.30;;;4.00;;
11653;SDS011;5883;48.818;9.114;2024-01-30T01:30:26;6.65;;;4.35;;
11653;SDS011;5883;48.818;9.114;2024-01-30T01:33:12;5.40;;;3.90;;
11653;SDS011;5883;48.818;9.114;2024-01-30T01:35:59;5.35;;;4.00;;
11653;SDS011;5883;48.818;9.114;2024-01-30T01:38:46;8.30;;;4.00;;
11653;SDS011;5883;48.818;9.114;2024-01-30T01:41:30;7.50;;;5.25;;
11653;SDS011;5883;48.818;9.114;2024-01-30T01:44:16;8.50;;;4.57;;
11653;SDS011;5883;48.818;9.114;2024-01-30T01:47:02;6.43;;;4.82;;
11653;SDS011;5883;48.818;9.114;2024-01-30T01:49:47;8.20;;;5.10;;
11653;SDS011;5883;48.818;9.114;2024-01-30T01:52:33;6.10;;;4.63;;
11653;SDS011;5883;48.818;9.114;2024-01-30T01:55:19;6.35;;;4.53;;
11653;SDS011;5883;48.818;9.114;2024-01-30T01:58:07;6.25;;;4.60;;
11653;SDS011;5883;48.818;9.114;2024-01-30T02:00:53;5.72;;;4.57;;
11653;SDS011;5883;48.818;9.114;2024-01-30T02:03:38;5.97;;;4.80;;
11653;SDS011;5883;48.818;9.114;2024-01-30T02:06:23;7.40;;;4.88;;
11653;SDS011;5883;48.818;9.114;2024-01-30T02:09:10;7.33;;;5.23;;
11653;SDS011;5883;48.818;9.114;2024-01-30T02:11:54;8.00;;;4.88;;
11653;SDS011;5883;48.818;9.114;2024-01-30T02:14:49;6.55;;;4.95;;
11653;SDS011;5883;48.818;9.114;2024-01-30T02:17:34;10.18;;;4.95;;
11653;SDS011;5883;48.818;9.114;2024-01-30T02:20:19;6.80;;;4.95;;
11653;SDS011;5883;48.818;9.114;2024-01-30T02:23:06;7.33;;;5.20;;
11653;SDS011;5883;48.818;9.114;2024-01-30T02:25:52;7.73;;;5.17;;
11653;SDS011;5883;48.818;9.114;2024-01-30T02:28:37;9.60;;;5.70;;
11653;SDS011;5883;48.818;9.114;2024-01-30T02:31:22;6.82;;;5.38;;
11653;SDS011;5883;48.818;9.114;2024-01-30T02:34:08;6.03;;;4.80;;
11653;SDS011;5883;48.818;9.114;2024-01-30T02:36:53;8.75;;;5.55;;
11653;SDS011;5883;48.818;9.114;2024-01-30T02:39:39;7.07;;;5.13;;
11653;SDS011;5883;48.818;9.114;2024-01-30T02:42:24;6.40;;;5.07;;
11653;SDS011;5883;48.818;9.114;2024-01-30T02:45:10;8.07;;;5.37;;
11653;SDS011;5883;48.818;9.114;2024-01-30T02:47:55;7.32;;;4.97;;
11653;SDS011;5883;48.818;9.114;2024-01-30T02:50:40;7.67;;;4.50;;
11653;SDS011;5883;48.818;9.114;2024-01-30T02:53:25;7.23;;;4.73;;
11653;SDS011;5883;48.818;9.114;2024-01-30T02:56:11;6.73;;;4.83;;
11653;SDS011;5883;48.818;9.114;2024-01-30T02:58:57;5.40;;;4.30;;
11653;SDS011;5883;48.818;9.114;2024-01-30T03:01:42;7.75;;;5.20;;
11653;SDS011;5883;48.818;9.114;2024-01-30T03:04:28;7.37;;;4.57;;
11653;SDS011;5883;48.818;9.114;2024-01-30T03:07:14;7.00;;;4.90;;
11653;SDS011;5883;48.818;9.114;2024-01-30T03:09:59;7.23;;;4.40;;
11653;SDS011;5883;48.818;9.114;2024-01-30T03:12:45;8.33;;;4.53;;
11653;SDS011;5883;48.818;9.114;2024-01-30T03:15:30;7.63;;;4.77;;
11653;SDS011;5883;48.818;9.114;2024-01-30T03:18:15;6.10;;;4.60;;
11653;SDS011;5883;48.818;9.114;2024-01-30T03:21:00;6.80;;;3.93;;
11653;SDS011;5883;48.818;9.114;2024-01-30T03:23:45;6.43;;;4.53;;
11653;SDS011;5883;48.818;9.114;2024-01-30T03:26:29;6.53;;;4.35;;
11653;SDS011;5883;48.818;9.114;2024-01-30T03:29:16;6.80;;;4.77;;
11653;SDS011;5883;48.818;9.114;2024-01-30T03:32:00;7.33;;;4.53;;
11653;SDS011;5883;48.818;9.114;2024-01-30T03:34:47;12.65;;;7.25;;
11653;SDS011;5883;48.818;9.114;2024-01-30T03:37:32;13.20;;;6.53;;
11653;SDS011;5883;48.818;9.114;2024-01-30T03:40:17;11.10;;;5.77;;
11653;SDS011;5883;48.818;9.114;2024-01-30T03:43:02;9.33;;;5.43;;
11653;SDS011;5883;48.818;9.114;2024-01-30T03:45:50;6.67;;;5.30;;
11653;SDS011;5883;48.818;9.114;2024-01-30T03:48:35;8.43;;;4.83;;
11653;SDS011;5883;48.818;9.114;2024-01-30T03:51:20;5.93;;;4.40;;
11653;SDS011;5883;48.818;9.114;2024-01-30T03:54:05;6.47;;;4.53;;
11653;SDS011;5883;48.818;9.114;2024-01-30T03:56:51;6.37;;;4.70;;
11653;SDS011;5883;48.818;9.114;2024-01-30T03:59:36;6.67;;;4.57;;
11653;SDS011;5883;48.818;9.114;2024-01-30T04:02:22;4.83;;;4.17;;
11653;SDS011;5883;48.818;9.114;2024-01-30T04:05:07;6.57;;;4.50;;
11653;SDS011;5883;48.818;9.114;2024-01-30T04:07:52;6.67;;;4.40;;
11653;SDS011;5883;48.818;9.114;2024-01-30T04:10:37;4.90;;;3.90;;
11653;SDS011;5883;48.818;9.114;2024-01-30T04:13:22;4.53;;;4.07;;
11653;SDS011;5883;48.818;9.114;2024-01-30T04:16:07;5.27;;;4.03;;
11653;SDS011;5883;48.818;9.114;2024-01-30T04:18:54;6.07;;;4.37;;
11653;SDS011;5883;48.818;9.114;2024-01-30T04:21:38;6.67;;;4.90;;
11653;SDS011;5883;48.818;9.114;2024-01-30T04:24:24;6.40;;;4.53;;
11653;SDS011;5883;48.818;9.114;2024-01-30T04:27:09;7.20;;;5.47;;
11653;SDS011;5883;48.818;9.114;2024-01-30T04:29:54;7.70;;;5.07;;
11653;SDS011;5883;48.818;9.114;2024-01-30T04:32:39;8.87;;;5.47;;
11653;SDS011;5883;48.818;9.114;2024-01-30T04:35:25;6.23;;;5.00;;
11653;SDS011;5883;48.818;9.114;2024-01-30T04:38:10;6.67;;;4.90;;
11653;SDS011;5883;48.818;9.114;2024-01-30T04:40:55;6.47;;;5.00;;
11653;SDS011;5883;48.818;9.114;2024-01-30T04:43:40;6.27;;;4.50;;
11653;SDS011;5883;48.818;9.114;2024-01-30T04:46:25;6.07;;;4.57;;
11653;SDS011;5883;48.818;9.114;2024-01-30T04:49:10;7.97;;;4.47;;
11653;SDS011;5883;48.818;9.114;2024-01-30T04:51:57;7.50;;;4.80;;
11653;SDS011;5883;48.818;9.114;2024-01-30T04:54:42;6.43;;;4.50;;
11653;SDS011;5883;48.818;9.114;2024-01-30T04:57:27;4.73;;;4.23;;
11653;SDS011;5883;48.818;9.114;2024-01-30T05:00:13;7.27;;;4.87;;
11653;SDS011;5883;48.818;9.114;2024-01-30T05:02:59;7.17;;;5.30;;
11653;SDS011;5883;48.818;9.114;2024-01-30T05:05:44;7.70;;;5.17;;
11653;SDS011;5883;48.818;9.114;2024-01-30T05:08:30;6.80;;;4.50;;
11653;SDS011;5883;48.818;9.114;2024-01-30T05:11:15;9.63;;;4.90;;
11653;SDS011;5883;48.818;9.114;2024-01-30T05:14:00;8.57;;;5.10;;
11653;SDS011;5883;48.818;9.114;2024-01-30T05:16:45;8.80;;;5.60;;
11653;SDS011;5883;48.818;9.114;2024-01-30T05:19:30;5.73;;;4.63;;
11653;SDS011;5883;48.818;9.114;2024-01-30T05:22:15;6.57;;;4.73;;
11653;SDS011;5883;48.818;9.114;2024-01-30T05:25:04;6.07;;;4.67;;
11653;SDS011;5883;48.818;9.114;2024-01-30T05:27:50;5.83;;;4.87;;
11653;SDS011;5883;48.818;9.114;2024-01-30T05:30:35;5.87;;;4.77;;
11653;SDS011;5883;48.818;9.114;2024-01-30T05:33:20;6.00;;;4.43;;
11653;SDS011;5883;48.818;9.114;2024-01-30T05:36:05;6.57;;;5.03;;
11653;SDS011;5883;48.818;9.114;2024-01-30T05:38:50;7.90;;;5.20;;
11653;SDS011;5883;48.818;9.114;2024-01-30T05:41:36;8.03;;;5.53;;
11653;SDS011;5883;48.818;9.114;2024-01-30T05:44:21;7.03;;;4.80;;
11653;SDS011;5883;48.818;9.114;2024-01-30T05:47:06;9.47;;;5.60;;
11653;SDS011;5883;48.818;9.114;2024-01-30T05:49:50;8.77;;;4.83;;
11653;SDS011;5883;48.818;9.114;2024-01-30T05:52:35;6.83;;;5.50;;
11653;SDS011;5883;48.818;9.114;2024-01-30T05:55:20;8.77;;;5.50;;
11653;SDS011;5883;48.818;9.114;2024-01-30T05:58:07;9.37;;;6.07;;
11653;SDS011;5883;48.818;9.114;2024-01-30T06:00:51;8.10;;;5.50;;
11653;SDS011;5883;48.818;9.114;2024-01-30T06:03:36;7.60;;;5.20;;
11653;SDS011;5883;48.818;9.114;2024-01-30T06:06:22;8.30;;;6.07;;
11653;SDS011;5883;48.818;9.114;2024-01-30T06:09:07;7.70;;;5.30;;
11653;SDS011;5883;48.818;9.114;2024-01-30T06:11:53;12.10;;;6.00;;
11653;SDS011;5883;48.818;9.114;2024-01-30T06:14:39;9.17;;;5.73;;
11653;SDS011;5883;48.818;9.114;2024-01-30T06:17:26;10.07;;;5.77;;
11653;SDS011;5883;48.818;9.114;2024-01-30T06:20:11;12.70;;;5.60;;
11653;SDS011;5883;48.818;9.114;2024-01-30T06:22:55;8.00;;;5.40;;
11653;SDS011;5883;48.818;9.114;2024-01-30T06:25:40;7.90;;;5.37;;
11653;SDS011;5883;48.818;9.114;2024-01-30T06:28:25;7.57;;;5.77;;
11653;SDS011;5883;48.818;9.114;2024-01-30T06:31:12;7.90;;;5.50;;
11653;SDS011;5883;48.818;9.114;2024-01-30T06:33:56;8.03;;;5.80;;
11653;SDS011;5883;48.818;9.114;2024-01-30T06:36:41;8.60;;;5.30;;
11653;SDS011;5883;48.818;9.114;2024-01-30T06:39:26;6.83;;;4.90;;
11653;SDS011;5883;48.818;9.114;2024-01-30T06:42:12;8.30;;;5.37;;
11653;SDS011;5883;48.818;9.114;2024-01-30T06:44:57;6.93;;;5.20;;
11653;SDS011;5883;48.818;9.114;2024-01-30T06:47:43;11.63;;;5.10;;
11653;SDS011;5883;48.818;9.114;2024-01-30T06:50:28;6.63;;;4.80;;
11653;SDS011;5883;48.818;9.114;2024-01-30T06:53:13;8.60;;;4.80;;
11653;SDS011;5883;48.818;9.114;2024-01-30T06:55:58;6.97;;;4.80;;
11653;SDS011;5883;48.818;9.114;2024-01-30T06:58:43;6.27;;;4.67;;
11653;SDS011;5883;48.818;9.114;2024-01-30T07:01:28;7.23;;;5.37;;
11653;SDS011;5883;48.818;9.114;2024-01-30T07:04:15;8.77;;;5.30;;
11653;SDS011;5883;48.818;9.114;2024-01-30T07:07:02;6.27;;;4.93;;
11653;SDS011;5883;48.818;9.114;2024-01-30T07:09:48;8.23;;;5.37;;
11653;SDS011;5883;48.818;9.114;2024-01-30T07:12:36;6.70;;;5.40;;
11653;SDS011;5883;48.818;9.114;2024-01-30T07:15:21;8.03;;;6.03;;
11653;SDS011;5883;48.818;9.114;2024-01-30T07:18:06;7.83;;;5.73;;
11653;SDS011;5883;48.818;9.114;2024-01-30T07:20:53;10.13;;;6.13;;
11653;SDS011;5883;48.818;9.114;2024-01-30T07:23:37;8.07;;;6.27;;
11653;SDS011;5883;48.818;9.114;2024-01-30T07:26:23;8.47;;;6.40;;
11653;SDS011;5883;48.818;9.114;2024-01-30T07:29:08;9.23;;;5.90;;
11653;SDS011;5883;48.818;9.114;2024-01-30T07:31:53;10.77;;;6.53;;
11653;SDS011;5883;48.818;9.114;2024-01-30T07:34:38;8.73;;;6.33;;
11653;SDS011;5883;48.818;9.114;2024-01-30T07:37:24;10.10;;;7.00;;
11653;SDS011;5883;48.818;9.114;2024-01-30T07:40:09;8.27;;;6.37;;
11653;SDS011;5883;48.818;9.114;2024-01-30T07:42:55;10.38;;;6.43;;
11653;SDS011;5883;48.818;9.114;2024-01-30T07:45:40;9.70;;;6.63;;
11653;SDS011;5883;48.818;9.114;2024-01-30T07:48:24;9.48;;;6.70;;
11653;SDS011;5883;48.818;9.114;2024-01-30T07:51:09;10.10;;;6.70;;
11653;SDS011;5883;48.818;9.114;2024-01-30T07:53:56;11.82;;;8.07;;
11653;SDS011;5883;48.818;9.114;2024-01-30T07:56:41;12.07;;;7.50;;
11653;SDS011;5883;48.818;9.114;2024-01-30T07:59:26;10.45;;;7.18;;
11653;SDS011;5883;48.818;9.114;2024-01-30T08:02:11;13.35;;;7.43;;
11653;SDS011;5883;48.818;9.114;2024-01-30T08:04:56;9.02;;;7.00;;
11653;SDS011;5883;48.818;9.114;2024-01-30T08:07:41;10.50;;;6.95;;
11653;SDS011;5883;48.818;9.114;2024-01-30T08:10:28;9.30;;;6.85;;
11653;SDS011;5883;48.818;9.114;2024-01-30T08:13:13;11.45;;;7.07;;
11653;SDS011;5883;48.818;9.114;2024-01-30T08:15:58;9.13;;;6.60;;
11653;SDS011;5883;48.818;9.114;2024-01-30T08:18:43;8.73;;;6.45;;
11653;SDS011;5883;48.818;9.114;2024-01-30T08:21:28;8.70;;;6.35;;
11653;SDS011;5883;48.818;9.114;2024-01-30T08:24:13;9.43;;;6.72;;
11653;SDS011;5883;48.818;9.114;2024-01-30T08:26:59;8.70;;;6.07;;
11653;SDS011;5883;48.818;9.114;2024-01-30T08:29:46;10.80;;;5.50;;
11653;SDS011;5883;48.818;9.114;2024-01-30T08:32:31;10.70;;;6.68;;
11653;SDS011;5883;48.818;9.114;2024-01-30T08:35:16;8.23;;;5.97;;
11653;SDS011;5883;48.818;9.114;2024-01-30T08:38:01;9.18;;;6.25;;
11653;SDS011;5883;48.818;9.114;2024-01-30T08:40:46;10.65;;;6.43;;
11653;SDS011;5883;48.818;9.114;2024-01-30T08:43:33;8.43;;;6.05;;
11653;SDS011;5883;48.818;9.114;2024-01-30T08:46:18;8.48;;;5.95;;
11653;SDS011;5883;48.818;9.114;2024-01-30T08:49:03;10.23;;;6.45;;
11653;SDS011;5883;48.818;9.114;2024-01-30T08:51:48;9.93;;;6.50;;
11653;SDS011;5883;48.818;9.114;2024-01-30T08:54:34;8.63;;;6.45;;
11653;SDS011;5883;48.818;9.114;2024-01-30T08:57:19;9.27;;;6.47;;
11653;SDS011;5883;48.818;9.114;2024-01-30T09:00:06;8.82;;;6.20;;
11653;SDS011;5883;48.818;9.114;2024-01-30T09:02:52;12.93;;;8.55;;
11653;SDS011;5883;48.818;9.114;2024-01-30T09:05:37;12.18;;;6.82;;
11653;SDS011;5883;48.818;9.114;2024-01-30T09:08:22;10.85;;;7.30;;
11653;SDS011;5883;48.818;9.114;2024-01-30T09:11:11;13.40;;;7.03;;
11653;SDS011;5883;48.818;9.114;2024-01-30T09:13:56;11.27;;;7.47;;
11653;SDS011;5883;48.818;9.114;2024-01-30T09:16:43;11.55;;;6.28;;
11653;SDS011;5883;48.818;9.114;2024-01-30T09:19:28;11.68;;;6.28;;
11653;SDS011;5883;48.818;9.114;2024-01-30T09:22:13;11.48;;;7.13;;
11653;SDS011;5883;48.818;9.114;2024-01-30T09:24:58;11.02;;;6.68;;
11653;SDS011;5883;48.818;9.114;2024-01-30T09:27:43;9.18;;;5.60;;
11653;SDS011;5883;48.818;9.114;2024-01-30T09:30:28;7.57;;;6.03;;
11653;SDS011;5883;48.818;9.114;2024-01-30T09:33:14;9.60;;;6.47;;
11653;SDS011;5883;48.818;9.114;2024-01-30T09:35:59;7.88;;;6.25;;
11653;SDS011;5883;48.818;9.114;2024-01-30T09:38:44;8.32;;;5.38;;
11653;SDS011;5883;48.818;9.114;2024-01-30T09:41:29;7.63;;;6.20;;
11653;SDS011;5883;48.818;9.114;2024-01-30T09:44:16;6.70;;;5.55;;
11653;SDS011;5883;48.818;9.114;2024-01-30T09:47:02;7.60;;;5.50;;
11653;SDS011;5883;48.818;9.114;2024-01-30T09:49:50;7.70;;;6.28;;
11653;SDS011;5883;48.818;9.114;2024-01-30T09:52:36;8.23;;;5.85;;
11653;SDS011;5883;48.818;9.114;2024-01-30T09:55:21;9.95;;;5.68;;
11653;SDS011;5883;48.818;9.114;2024-01-30T09:58:07;7.20;;;5.57;;
11653;SDS011;5883;48.818;9.114;2024-01-30T10:00:52;11.98;;;6.07;;
11653;SDS011;5883;48.818;9.114;2024-01-30T10:03:37;10.73;;;6.93;;
11653;SDS011;5883;48.818;9.114;2024-01-30T10:06:23;6.60;;;5.88;;
11653;SDS011;5883;48.818;9.114;2024-01-30T10:09:09;12.73;;;6.80;;
11653;SDS011;5883;48.818;9.114;2024-01-30T10:11:54;11.35;;;6.43;;
11653;SDS011;5883;48.818;9.114;2024-01-30T10:14:39;13.00;;;6.90;;
11653;SDS011;5883;48.818;9.114;2024-01-30T10:17:25;9.55;;;6.43;;
11653;SDS011;5883;48.818;9.114;2024-01-30T10:20:11;12.43;;;6.07;;
11653;SDS011;5883;48.818;9.114;2024-01-30T10:22:57;10.85;;;6.97;;
11653;SDS011;5883;48.818;9.114;2024-01-30T10:25:42;9.20;;;6.78;;
11653;SDS011;5883;48.818;9.114;2024-01-30T10:28:28;8.20;;;5.57;;
11653;SDS011;5883;48.818;9.114;2024-01-30T10:31:16;10.60;;;5.88;;
11653;SDS011;5883;48.818;9.114;2024-01-30T10:34:01;7.88;;;5.78;;
11653;SDS011;5883;48.818;9.114;2024-01-30T10:36:46;9.25;;;6.20;;
11653;SDS011;5883;48.818;9.114;2024-01-30T10:39:34;8.10;;;5.95;;
11653;SDS011;5883;48.818;9.114;2024-01-30T10:42:23;7.57;;;5.78;;
11653;SDS011;5883;48.818;9.114;2024-01-30T10:45:09;7.43;;;5.60;;
11653;SDS011;5883;48.818;9.114;2024-01-30T10:47:56;12.55;;;6.07;;
11653;SDS011;5883;48.818;9.114;2024-01-30T10:50:42;9.48;;;5.82;;
11653;SDS011;5883;48.818;9.114;2024-01-30T10:53:28;10.05;;;5.72;;
11653;SDS011;5883;48.818;9.114;2024-01-30T10:56:14;8.63;;;6.28;;
11653;SDS011;5883;48.818;9.114;2024-01-30T10:59:00;8.38;;;6.10;;
11653;SDS011;5883;48.818;9.114;2024-01-30T11:01:46;13.35;;;6.00;;
11653;SDS011;5883;48.818;9.114;2024-01-30T11:04:35;11.50;;;6.30;;
11653;SDS011;5883;48.818;9.114;2024-01-30T11:07:23;11.13;;;6.28;;
11653;SDS011;5883;48.818;9.114;2024-01-30T11:10:09;11.27;;;6.38;;
11653;SDS011;5883;48.818;9.114;2024-01-30T11:12:58;11.45;;;6.00;;
11653;SDS011;5883;48.818;9.114;2024-01-30T11:15:43;7.28;;;5.60;;
11653;SDS011;5883;48.818;9.114;2024-01-30T11:18:28;10.60;;;5.50;;
11653;SDS011;5883;48.818;9.114;2024-01-30T11:21:14;13.35;;;5.78;;
11653;SDS011;5883;48.818;9.114;2024-01-30T11:23:58;8.32;;;5.57;;
11653;SDS011;5883;48.818;9.114;2024-01-30T11:26:44;10.00;;;5.82;;
11653;SDS011;5883;48.818;9.114;2024-01-30T11:29:30;8.35;;;6.03;;
11653;SDS011;5883;48.818;9.114;2024-01-30T11:32:16;16.45;;;6.35;;
11653;SDS011;5883;48.818;9.114;2024-01-30T11:35:07;10.07;;;5.88;;
11653;SDS011;5883;48.818;9.114;2024-01-30T11:37:54;8.50;;;5.80;;
11653;SDS011;5883;48.818;9.114;2024-01-30T11:40:42;8.63;;;5.45;;
11653;SDS011;5883;48.818;9.114;2024-01-30T11:43:28;7.32;;;5.50;;
11653;SDS011;5883;48.818;9.114;2024-01-30T11:46:14;8.07;;;5.30;;
11653;SDS011;5883;48.818;9.114;2024-01-30T11:48:59;10.20;;;5.40;;
11653;SDS011;5883;48.818;9.114;2024-01-30T11:51:45;6.93;;;5.28;;
11653;SDS011;5883;48.818;9.114;2024-01-30T11:54:32;8.63;;;5.70;;
11653;SDS011;5883;48.818;9.114;2024-01-30T11:57:17;8.07;;;5.55;;
11653;SDS011;5883;48.818;9.114;2024-01-30T12:00:02;8.70;;;5.75;;
11653;SDS011;5883;48.818;9.114;2024-01-30T12:02:55;11.55;;;6.55;;
11653;SDS011;5883;48.818;9.114;2024-01-30T12:05:40;7.88;;;6.05;;
11653;SDS011;5883;48.818;9.114;2024-01-30T12:08:27;14.20;;;6.78;;
11653;SDS011;5883;48.818;9.114;2024-01-30T12:11:12;15.02;;;6.60;;
11653;SDS011;5883;48.818;9.114;2024-01-30T12:13:57;9.20;;;6.10;;
11653;SDS011;5883;48.818;9.114;2024-01-30T12:16:42;7.70;;;5.50;;
11653;SDS011;5883;48.818;9.114;2024-01-30T12:19:29;11.15;;;4.97;;
11653;SDS011;5883;48.818;9.114;2024-01-30T12:22:14;9.70;;;5.18;;
11653;SDS011;5883;48.818;9.114;2024-01-30T12:24:59;6.03;;;4.63;;
11653;SDS011;5883;48.818;9.114;2024-01-30T12:27:45;10.73;;;5.30;;
11653;SDS011;5883;48.818;9.114;2024-01-30T12:30:30;10.13;;;6.20;;
11653;SDS011;5883;48.818;9.114;2024-01-30T12:33:18;10.50;;;5.30;;
11653;SDS011;5883;48.818;9.114;2024-01-30T12:36:06;10.02;;;5.60;;
11653;SDS011;5883;48.818;9.114;2024-01-30T12:38:51;10.95;;;6.25;;
11653;SDS011;5883;48.818;9.114;2024-01-30T12:41:36;17.42;;;6.28;;
11653;SDS011;5883;48.818;9.114;2024-01-30T12:44:21;11.48;;;5.95;;
11653;SDS011;5883;48.818;9.114;2024-01-30T12:47:08;10.00;;;5.70;;
11653;SDS011;5883;48.818;9.114;2024-01-30T12:49:53;9.77;;;5.45;;
11653;SDS011;5883;48.818;9.114;2024-01-30T12:52:40;12.60;;;5.30;;
11653;SDS011;5883;48.818;9.114;2024-01-30T12:55:25;7.47;;;5.45;;
11653;SDS011;5883;48.818;9.114;2024-01-30T12:58:11;9.27;;;4.90;;
11653;SDS011;5883;48.818;9.114;2024-01-30T13:00:56;13.00;;;4.78;;
11653;SDS011;5883;48.818;9.114;2024-01-30T13:03:41;11.10;;;4.50;;
11653;SDS011;5883;48.818;9.114;2024-01-30T13:06:26;11.82;;;4.18;;
11653;SDS011;5883;48.818;9.114;2024-01-30T13:09:13;6.38;;;4.50;;
11653;SDS011;5883;48.818;9.114;2024-01-30T13:11:58;7.53;;;3.80;;
11653;SDS011;5883;48.818;9.114;2024-01-30T13:14:43;7.75;;;3.80;;
11653;SDS011;5883;48.818;9.114;2024-01-30T13:17:28;8.90;;;4.20;;
11653;SDS011;5883;48.818;9.114;2024-01-30T13:20:13;10.05;;;4.20;;
11653;SDS011;5883;48.818;9.114;2024-01-30T13:23:00;8.32;;;4.25;;
11653;SDS011;5883;48.818;9.114;2024-01-30T13:25:46;11.63;;;3.90;;
11653;SDS011;5883;48.818;9.114;2024-01-30T13:28:31;11.00;;;4.85;;
11653;SDS011;5883;48.818;9.114;2024-01-30T13:31:17;7.63;;;5.18;;
11653;SDS011;5883;48.818;9.114;2024-01-30T13:34:03;6.75;;;4.82;;
11653;SDS011;5883;48.818;9.114;2024-01-30T13:36:47;6.45;;;4.75;;
11653;SDS011;5883;48.818;9.114;2024-01-30T13:39:33;5.93;;;4.63;;
11653;SDS011;5883;48.818;9.114;2024-01-30T13:42:19;8.13;;;4.43;;
11653;SDS011;5883;48.818;9.114;2024-01-30T13:45:04;9.65;;;4.60;;
11653;SDS011;5883;48.818;9.114;2024-01-30T13:47:50;8.05;;;4.85;;
11653;SDS011;5883;48.818;9.114;2024-01-30T13:50:35;7.10;;;4.88;;
11653;SDS011;5883;48.818;9.114;2024-01-30T13:53:20;7.78;;;5.40;;
11653;SDS011;5883;48.818;9.114;2024-01-30T13:56:05;11.95;;;5.25;;
11653;SDS011;5883;48.818;9.114;2024-01-30T13:58:52;8.35;;;5.18;;
11653;SDS011;5883;48.818;9.114;2024-01-30T14:01:39;14.07;;;7.43;;
11653;SDS011;5883;48.818;9.114;2024-01-30T14:04:24;14.23;;;6.82;;
11653;SDS011;5883;48.818;9.114;2024-01-30T14:07:09;11.55;;;7.10;;
11653;SDS011;5883;48.818;9.114;2024-01-30T14:09:54;13.50;;;7.47;;
11653;SDS011;5883;48.818;9.114;2024-01-30T14:12:39;14.38;;;6.70;;
11653;SDS011;5883;48.818;9.114;2024-01-30T14:15:25;14.93;;;6.55;;
11653;SDS011;5883;48.818;9.114;2024-01-30T14:18:10;9.30;;;6.25;;
11653;SDS011;5883;48.818;9.114;2024-01-30T14:20:55;12.45;;;6.28;;
11653;SDS011;5883;48.818;9.114;2024-01-30T14:23:41;12.73;;;6.47;;
11653;SDS011;5883;48.818;9.114;2024-01-30T14:26:26;15.63;;;6.28;;
11653;SDS011;5883;48.818;9.114;2024-01-30T14:29:11;8.93;;;6.38;;
11653;SDS011;5883;48.818;9.114;2024-01-30T14:31:57;14.68;;;6.78;;
11653;SDS011;5883;48.818;9.114;2024-01-30T14:34:42;8.70;;;6.50;;
11653;SDS011;5883;48.818;9.114;2024-01-30T14:37:27;13.43;;;6.35;;
11653;SDS011;5883;48.818;9.114;2024-01-30T14:40:13;18.73;;;6.35;;
11653;SDS011;5883;48.818;9.114;2024-01-30T14:42:58;13.32;;;6.47;;
11653;SDS011;5883;48.818;9.114;2024-01-30T14:45:43;10.10;;;6.55;;
11653;SDS011;5883;48.818;9.114;2024-01-30T14:48:30;16.30;;;6.20;;
11653;SDS011;5883;48.818;9.114;2024-01-30T14:51:15;10.77;;;6.28;;
11653;SDS011;5883;48.818;9.114;2024-01-30T14:54:00;15.68;;;6.68;;
11653;SDS011;5883;48.818;9.114;2024-01-30T14:56:46;17.92;;;6.90;;
11653;SDS011;5883;48.818;9.114;2024-01-30T14:59:31;22.92;;;8.43;;
11653;SDS011;5883;48.818;9.114;2024-01-30T15:02:17;24.35;;;10.85;;
11653;SDS011;5883;48.818;9.114;2024-01-30T15:05:04;17.90;;;8.48;;
11653;SDS011;5883;48.818;9.114;2024-01-30T15:07:49;14.55;;;6.25;;
11653;SDS011;5883;48.818;9.114;2024-01-30T15:10:34;9.00;;;6.30;;
11653;SDS011;5883;48.818;9.114;2024-01-30T15:13:19;14.80;;;6.18;;
11653;SDS011;5883;48.818;9.114;2024-01-30T15:16:04;7.97;;;5.45;;
11653;SDS011;5883;48.818;9.114;2024-01-30T15:18:49;10.23;;;6.25;;
11653;SDS011;5883;48.818;9.114;2024-01-30T15:21:36;7.03;;;5.75;;
11653;SDS011;5883;48.818;9.114;2024-01-30T15:24:21;8.60;;;5.97;;
11653;SDS011;5883;48.818;9.114;2024-01-30T15:27:08;15.23;;;6.05;;
11653;SDS011;5883;48.818;9.114;2024-01-30T15:29:53;7.97;;;5.80;;
11653;SDS011;5883;48.818;9.114;2024-01-30T15:32:37;7.47;;;5.88;;
11653;SDS011;5883;48.818;9.114;2024-01-30T15:35:22;9.70;;;6.88;;
11653;SDS011;5883;48.818;9.114;2024-01-30T15:38:09;11.98;;;6.28;;
11653;SDS011;5883;48.818;9.114;2024-01-30T15:40:54;12.52;;;6.85;;
11653;SDS011;5883;48.818;9.114;2024-01-30T15:43:39;11.25;;;6.65;;
11653;SDS011;5883;48.818;9.114;2024-01-30T15:46:24;10.60;;;6.55;;
11653;SDS011;5883;48.818;9.114;2024-01-30T15:49:09;7.65;;;6.07;;
11653;SDS011;5883;48.818;9.114;2024-01-30T15:51:54;8.50;;;6.82;;
11653;SDS011;5883;48.818;9.114;2024-01-30T15:54:41;13.57;;;6.22;;
11653;SDS011;5883;48.818;9.114;2024-01-30T15:57:26;9.38;;;5.97;;
11653;SDS011;5883;48.818;9.114;2024-01-30T16:00:12;15.10;;;6.68;;
11653;SDS011;5883;48.818;9.114;2024-01-30T16:02:57;10.60;;;7.28;;
11653;SDS011;5883;48.818;9.114;2024-01-30T16:05:42;22.38;;;12.38;;
11653;SDS011;5883;48.818;9.114;2024-01-30T16:08:27;26.90;;;14.55;;
11653;SDS011;5883;48.818;9.114;2024-01-30T16:11:13;25.27;;;14.13;;
11653;SDS011;5883;48.818;9.114;2024-01-30T16:14:01;21.88;;;12.63;;
11653;SDS011;5883;48.818;9.114;2024-01-30T16:16:46;17.73;;;10.70;;
11653;SDS011;5883;48.818;9.114;2024-01-30T16:19:31;20.45;;;10.35;;
11653;SDS011;5883;48.818;9.114;2024-01-30T16:22:17;15.27;;;9.35;;
11653;SDS011;5883;48.818;9.114;2024-01-30T16:25:02;25.90;;;11.70;;
11653;SDS011;5883;48.818;9.114;2024-01-30T16:27:49;22.05;;;13.77;;
11653;SDS011;5883;48.818;9.114;2024-01-30T16:30:34;24.17;;;12.27;;
11653;SDS011;5883;48.818;9.114;2024-01-30T16:33:19;21.42;;;11.45;;
11653;SDS011;5883;48.818;9.114;2024-01-30T16:36:04;17.75;;;9.25;;
11653;SDS011;5883;48.818;9.114;2024-01-30T16:38:50;20.25;;;8.07;;
11653;SDS011;5883;48.818;9.114;2024-01-30T16:41:34;15.50;;;7.65;;
11653;SDS011;5883;48.818;9.114;2024-01-30T16:44:22;11.80;;;6.72;;
11653;SDS011;5883;48.818;9.114;2024-01-30T16:47:07;11.50;;;6.88;;